createdAt,value
2018-11-23T00:04:28.054Z,98805.12
2018-11-23T00:06:56.199Z,98801.11
2018-11-23T00:09:24.787Z,98809.58
2018-11-23T00:11:52.749Z,98801.83
2018-11-23T00:14:21.191Z,98809.05
2018-11-23T00:16:49.197Z,98806.09
2018-11-23T00:19:17.566Z,98804.50
2018-11-23T00:21:44.954Z,98805.90
2018-11-23T00:24:12.701Z,98805.05
2018-11-23T00:27:44.814Z,98803.38
2018-11-23T00:30:17.633Z,98806.56
2018-11-23T00:32:45.770Z,98812.20
2018-11-23T00:35:14.574Z,98813.48
2018-11-23T00:37:43.053Z,98810.56
2018-11-23T00:40:12.599Z,98814.83
2018-11-23T00:42:40.855Z,98815.91
2018-11-23T00:45:09.775Z,98814.30
2018-11-23T00:47:37.819Z,98819.86
2018-11-23T00:50:08.586Z,98817.74
2018-11-23T00:52:36.575Z,98817.70
2018-11-23T00:55:04.590Z,98825.70
2018-11-23T00:57:32.474Z,98828.36
2018-11-23T01:00:00.303Z,98836.37
2018-11-23T01:02:28.058Z,98834.72
2018-11-23T01:04:56.020Z,98830.98
2018-11-23T01:07:23.946Z,98839.53
2018-11-23T01:09:51.850Z,98838.20
2018-11-23T01:12:19.693Z,98839.80
2018-11-23T01:14:47.742Z,98835.02
2018-11-23T01:17:15.699Z,98843.80
2018-11-23T01:19:43.603Z,98832.36
2018-11-23T01:22:11.663Z,98822.16
2018-11-23T01:24:39.492Z,98842.70
2018-11-23T01:27:07.303Z,98837.13
2018-11-23T01:29:35.043Z,98842.45
2018-11-23T01:32:02.875Z,98840.30
2018-11-23T01:34:30.661Z,98849.30
2018-11-23T01:36:58.639Z,98848.23
2018-11-23T01:39:26.501Z,98855.92
2018-11-23T01:41:54.499Z,98856.43
2018-11-23T01:44:22.299Z,98856.66
2018-11-23T01:46:50.012Z,98865.75
2018-11-23T01:49:17.442Z,98857.00
2018-11-23T01:51:45.209Z,98852.47
2018-11-23T01:54:12.916Z,98844.22
2018-11-23T01:56:40.670Z,98838.66
2018-11-23T01:59:08.725Z,98850.33
2018-11-23T02:01:36.583Z,98852.73
2018-11-23T02:04:04.478Z,98846.63
2018-11-23T02:06:32.392Z,98837.27
2018-11-23T02:09:00.063Z,98830.64
2018-11-23T02:12:38.206Z,98829.25
2018-11-23T02:15:11.453Z,98834.58
2018-11-23T02:17:39.200Z,98825.78
2018-11-23T02:20:09.211Z,98823.62
2018-11-23T02:22:36.994Z,98819.63
2018-11-23T02:25:05.185Z,98804.95
2018-11-23T02:27:32.414Z,98814.86
2018-11-23T02:30:00.063Z,98812.19
2018-11-23T02:32:27.976Z,98817.16
2018-11-23T02:34:55.659Z,98805.13
2018-11-23T02:37:23.368Z,98811.37
2018-11-23T02:39:51.300Z,98813.20
2018-11-23T02:42:18.983Z,98804.71
2018-11-23T02:44:46.659Z,98808.56
2018-11-23T02:47:14.303Z,98804.35
2018-11-23T02:49:41.991Z,98808.03
2018-11-23T02:52:09.307Z,98801.12
2018-11-23T02:54:37.003Z,98803.89
2018-11-23T02:57:05.307Z,98802.51
2018-11-23T02:59:32.990Z,98797.73
2018-11-23T03:02:00.783Z,98802.05
2018-11-23T03:04:28.607Z,98794.27
2018-11-23T03:06:56.455Z,98794.83
2018-11-23T03:09:24.186Z,98795.39
2018-11-23T03:11:51.760Z,98792.98
2018-11-23T03:14:19.596Z,98743.69
2018-11-23T03:16:47.312Z,98804.61
2018-11-23T03:19:14.986Z,98808.13
2018-11-23T03:21:42.673Z,98809.93
2018-11-23T03:24:10.584Z,98812.39
2018-11-23T03:26:38.304Z,98811.31
2018-11-23T03:29:06.003Z,98815.73
2018-11-23T03:31:33.671Z,98815.72
2018-11-23T03:34:01.324Z,98810.14
2018-11-23T03:36:29.035Z,98817.30
2018-11-23T03:38:56.310Z,98819.00
2018-11-23T03:41:23.967Z,98815.27
2018-11-23T03:43:51.764Z,98817.38
2018-11-23T03:46:19.559Z,98762.30
2018-11-23T03:48:47.238Z,98816.66
2018-11-23T03:51:14.763Z,98820.59
2018-11-23T03:53:42.562Z,98824.90
2018-11-23T03:56:10.315Z,98825.91
2018-11-23T03:58:37.955Z,98824.84
2018-11-23T04:01:06.070Z,98824.02
2018-11-23T04:03:33.763Z,98822.74
2018-11-23T04:06:01.554Z,98820.27
2018-11-23T04:08:29.221Z,98824.52
2018-11-23T04:10:56.795Z,98822.95
2018-11-23T04:13:23.981Z,98817.05
2018-11-23T04:15:51.680Z,98802.06
2018-11-23T04:18:19.563Z,98788.25
2018-11-23T04:20:51.938Z,98805.05
2018-11-23T04:23:19.649Z,98807.73
2018-11-23T04:25:47.311Z,98805.08
2018-11-23T04:28:15.175Z,98795.25
2018-11-23T04:30:42.768Z,98798.20
2018-11-23T04:33:10.600Z,98796.41
2018-11-23T04:35:38.438Z,98792.37
2018-11-23T04:38:06.071Z,98793.14
2018-11-23T04:40:33.930Z,98797.40
2018-11-23T04:43:01.762Z,98798.97
2018-11-23T04:45:29.603Z,98799.80
2018-11-23T04:47:57.314Z,98804.35
2018-11-23T04:50:25.046Z,98801.38
2018-11-23T04:52:52.323Z,98802.14
2018-11-23T04:55:20.044Z,98804.75
2018-11-23T04:57:53.609Z,98793.58
2018-11-23T05:00:16.821Z,98786.73
2018-11-23T05:02:45.508Z,98788.81
2018-11-23T05:05:13.574Z,98786.16
2018-11-23T05:07:42.472Z,98784.81
2018-11-23T05:10:12.027Z,98778.44
2018-11-23T05:12:39.323Z,98775.83
2018-11-23T05:15:08.341Z,98779.31
2018-11-23T05:17:36.217Z,98778.23
2018-11-23T05:20:04.586Z,98780.91
2018-11-23T05:22:32.247Z,98782.02
2018-11-23T05:24:59.772Z,98776.09
2018-11-23T05:27:27.571Z,98773.68
2018-11-23T05:29:55.210Z,98763.11
2018-11-23T05:32:22.871Z,98776.38
2018-11-23T05:34:50.054Z,98777.36
2018-11-23T05:37:17.318Z,98773.67
2018-11-23T05:39:44.971Z,98764.34
2018-11-23T05:42:12.712Z,98770.94
2018-11-23T05:44:40.530Z,98764.34
2018-11-23T05:47:08.315Z,98773.92
2018-11-23T05:49:35.969Z,98764.09
2018-11-23T05:52:03.696Z,98765.42
2018-11-23T05:54:31.326Z,98759.27
2018-11-23T05:56:59.008Z,98763.06
2018-11-23T05:59:26.680Z,98764.19
2018-11-23T06:01:54.496Z,98756.45
2018-11-23T06:04:22.231Z,98757.52
2018-11-23T06:06:49.895Z,98757.83
2018-11-23T06:09:17.637Z,98760.40
2018-11-23T06:11:46.201Z,98766.85
2018-11-23T06:14:13.851Z,98769.81
2018-11-23T06:16:41.695Z,98768.76
2018-11-23T06:19:09.019Z,98762.91
2018-11-23T06:21:36.954Z,98756.56
2018-11-23T06:24:05.189Z,98765.37
2018-11-23T06:26:33.208Z,98774.18
2018-11-23T06:29:00.796Z,98767.73
2018-11-23T06:31:28.025Z,98770.39
2018-11-23T06:33:55.764Z,98770.39
2018-11-23T06:36:23.617Z,98766.09
2018-11-23T06:39:12.139Z,98765.83
2018-11-23T06:41:39.767Z,98753.54
2018-11-23T06:44:07.712Z,98755.16
2018-11-23T06:46:35.542Z,98758.91
2018-11-23T06:49:03.219Z,98763.16
2018-11-23T06:51:31.426Z,98764.48
2018-11-23T06:53:59.465Z,98769.00
2018-11-23T06:56:27.292Z,98774.33
2018-11-23T06:58:55.075Z,98772.17
2018-11-23T07:01:22.426Z,98777.11
2018-11-23T07:03:50.387Z,98782.73
2018-11-23T07:06:18.518Z,98782.48
2018-11-23T07:08:52.204Z,98771.83
2018-11-23T07:11:13.998Z,98773.20
2018-11-23T07:13:41.875Z,98784.64
2018-11-23T07:16:09.358Z,98785.45
2018-11-23T07:18:37.063Z,98782.23
2018-11-23T07:21:05.224Z,98783.04
2018-11-23T07:23:33.021Z,98782.58
2018-11-23T07:26:00.766Z,98783.91
2018-11-23T07:28:28.761Z,98789.50
2018-11-23T07:31:02.102Z,98787.09
2018-11-23T07:33:24.590Z,98787.86
2018-11-23T07:35:52.406Z,98789.75
2018-11-23T07:38:19.785Z,98786.74
2018-11-23T07:41:05.432Z,98773.42
2018-11-23T07:43:33.219Z,98783.50
2018-11-23T07:46:00.986Z,98791.91
2018-11-23T07:48:28.675Z,98788.42
2018-11-23T07:50:56.518Z,98792.67
2018-11-23T07:53:24.188Z,98785.97
2018-11-23T07:55:52.352Z,98786.01
2018-11-23T07:58:20.007Z,98781.30
2018-11-23T08:00:47.792Z,98768.45
2018-11-23T08:03:15.590Z,98775.67
2018-11-23T08:05:43.475Z,98773.58
2018-11-23T08:08:11.203Z,98767.98
2018-11-23T08:10:38.354Z,98772.55
2018-11-23T08:13:06.070Z,98770.70
2018-11-23T08:15:34.033Z,98771.16
2018-11-23T08:18:02.385Z,98769.05
2018-11-23T08:20:30.064Z,98763.99
2018-11-23T08:22:57.650Z,98767.46
2018-11-23T08:25:25.968Z,98768.80
2018-11-23T08:27:54.875Z,98769.88
2018-11-23T08:30:25.027Z,98764.03
2018-11-23T08:32:52.587Z,98767.52
2018-11-23T08:35:20.503Z,98773.11
2018-11-23T08:37:48.205Z,98770.74
2018-11-23T08:40:22.647Z,98763.61
2018-11-23T08:42:51.023Z,98760.39
2018-11-23T08:45:19.966Z,98739.59
2018-11-23T08:47:47.684Z,98751.36
2018-11-23T08:50:18.026Z,98753.54
2018-11-23T08:52:45.314Z,98750.31
2018-11-23T08:55:13.765Z,98756.20
2018-11-23T08:57:41.827Z,98758.87
2018-11-23T09:00:14.588Z,98757.53
2018-11-23T09:02:43.051Z,98751.95
2018-11-23T09:05:10.313Z,98754.34
2018-11-23T09:07:38.078Z,98748.20
2018-11-23T09:10:09.023Z,98748.23
2018-11-23T09:12:36.909Z,98739.42
2018-11-23T09:15:05.578Z,98746.09
2018-11-23T09:17:33.294Z,98744.23
2018-11-23T09:20:01.011Z,98742.70
2018-11-23T09:22:28.951Z,98740.52
2018-11-23T09:24:56.683Z,98750.70
2018-11-23T09:27:24.538Z,98750.95
2018-11-23T09:29:52.231Z,98747.23
2018-11-23T09:32:20.035Z,98744.57
2018-11-23T09:34:48.015Z,98742.44
2018-11-23T09:37:15.943Z,98738.43
2018-11-23T09:39:43.298Z,98741.63
2018-11-23T09:42:11.228Z,98744.58
2018-11-23T09:44:39.015Z,98745.91
2018-11-23T09:47:10.172Z,98749.36
2018-11-23T09:49:34.774Z,98744.58
2018-11-23T09:52:02.591Z,98745.13
2018-11-23T09:54:30.366Z,98735.77
2018-11-23T09:56:57.598Z,98723.26
2018-11-23T09:59:25.591Z,98722.17
2018-11-23T10:01:53.416Z,98716.05
2018-11-23T10:04:20.669Z,98729.39
2018-11-23T10:06:48.319Z,98732.84
2018-11-23T10:09:16.006Z,98728.58
2018-11-23T10:11:43.817Z,98720.33
2018-11-23T10:14:11.594Z,98719.78
2018-11-23T10:16:39.464Z,98713.39
2018-11-23T10:19:12.627Z,98713.13
2018-11-23T10:24:08.712Z,98713.92
2018-11-23T10:26:36.591Z,98704.84
2018-11-23T10:29:04.718Z,98697.91
2018-11-23T10:31:32.565Z,98693.62
2018-11-23T10:34:00.227Z,98694.72
2018-11-23T10:36:28.147Z,98687.48
2018-11-23T10:38:55.771Z,98682.69
2018-11-23T10:41:23.013Z,98673.63
2018-11-23T10:43:50.825Z,98667.22
2018-11-23T10:46:18.606Z,98665.07
2018-11-23T10:48:46.519Z,98652.27
2018-11-23T10:51:14.206Z,98645.86
2018-11-23T10:53:41.859Z,98639.17
2018-11-23T10:58:35.471Z,98628.73
2018-11-23T11:01:08.891Z,98628.75
2018-11-23T11:03:41.309Z,98624.46
2018-11-23T11:06:14.794Z,98627.16
2018-11-23T11:08:42.618Z,98621.82
2018-11-23T11:11:13.564Z,98619.16
2018-11-23T11:13:38.215Z,98607.61
2018-11-23T11:16:05.997Z,98606.02
2018-11-23T11:18:33.309Z,98602.02
2018-11-23T11:21:01.081Z,98603.63
2018-11-23T11:23:28.815Z,98600.39
2018-11-23T11:25:56.675Z,98597.97
2018-11-23T11:28:24.591Z,98590.25
2018-11-23T11:30:52.455Z,98582.73
2018-11-23T11:33:20.395Z,98572.59
2018-11-23T11:35:48.071Z,98567.75
2018-11-23T11:38:15.966Z,98570.41
2018-11-23T11:40:43.794Z,98567.20
2018-11-23T11:44:07.201Z,98564.58
2018-11-23T11:46:34.846Z,98555.48
2018-11-23T11:49:02.623Z,98557.11
2018-11-23T11:51:30.415Z,98552.55
2018-11-23T11:53:58.567Z,98551.17
2018-11-23T11:56:26.201Z,98544.79
2018-11-23T11:58:53.927Z,98546.41
2018-11-23T12:01:22.485Z,98536.23
2018-11-23T12:03:50.233Z,98535.95
2018-11-23T12:06:17.765Z,98531.44
2018-11-23T12:08:45.893Z,98534.92
2018-11-23T12:11:13.635Z,98527.99
2018-11-23T12:13:41.306Z,98524.27
2018-11-23T12:16:08.578Z,98520.76
2018-11-23T12:18:36.369Z,98518.12
2018-11-23T12:21:04.215Z,98516.27
2018-11-23T12:23:32.156Z,98516.52
2018-11-23T12:25:59.916Z,98516.52
2018-11-23T12:28:27.700Z,98515.19
2018-11-23T12:30:55.594Z,98508.23
2018-11-23T12:33:23.217Z,98510.11
2018-11-23T12:35:50.775Z,98509.57
2018-11-23T12:38:17.983Z,98507.16
2018-11-23T12:40:45.919Z,98507.94
2018-11-23T12:43:13.687Z,98503.13
2018-11-23T12:45:41.751Z,98500.69
2018-11-23T12:48:09.624Z,98494.53
2018-11-23T12:50:37.609Z,98491.59
2018-11-23T12:53:06.531Z,98487.31
2018-11-23T12:55:33.727Z,98489.65
2018-11-23T12:58:01.550Z,98489.07
2018-11-23T13:00:29.571Z,98483.17
2018-11-23T13:02:58.647Z,98482.36
2018-11-23T13:05:27.212Z,98485.30
2018-11-23T13:07:55.855Z,98490.64
2018-11-23T13:10:24.462Z,98487.39
2018-11-23T13:12:52.954Z,98488.98
2018-11-23T13:15:22.855Z,98477.73
2018-11-23T13:17:52.786Z,98477.17
2018-11-23T13:20:21.919Z,98463.08
2018-11-23T13:22:51.050Z,98478.23
2018-11-23T13:25:20.935Z,98480.33
2018-11-23T13:28:56.551Z,98478.20
2018-11-23T13:31:24.376Z,98466.67
2018-11-23T13:33:53.030Z,98467.80
2018-11-23T13:36:21.065Z,98458.41
2018-11-23T13:38:48.856Z,98466.90
2018-11-23T13:41:16.895Z,98467.20
2018-11-23T13:43:44.643Z,98463.20
2018-11-23T13:46:12.328Z,98464.53
2018-11-23T13:48:40.306Z,98461.08
2018-11-23T13:51:08.009Z,98459.19
2018-11-23T13:55:33.853Z,98449.13
2018-11-23T13:58:01.963Z,98448.33
2018-11-23T14:00:30.197Z,98451.75
2018-11-23T14:02:58.184Z,98443.53
2018-11-23T14:05:27.600Z,98431.75
2018-11-23T14:07:57.003Z,98433.39
2018-11-23T14:10:25.403Z,98434.45
2018-11-23T14:12:53.557Z,98430.45
2018-11-23T14:15:22.944Z,98430.45
2018-11-23T14:17:51.006Z,98424.59
2018-11-23T14:20:19.610Z,98417.97
2018-11-23T14:22:47.883Z,98420.64
2018-11-23T14:25:17.283Z,98422.59
2018-11-23T14:27:45.382Z,98420.98
2018-11-23T14:30:15.699Z,98411.62
2018-11-23T14:32:43.751Z,98408.67
2018-11-23T14:35:13.307Z,98406.81
2018-11-23T14:37:41.440Z,98402.02
2018-11-23T14:40:10.054Z,98402.02
2018-11-23T14:42:38.594Z,98407.66
2018-11-23T14:45:17.435Z,98396.78
2018-11-23T14:47:45.454Z,98409.35
2018-11-23T14:50:15.962Z,98403.22
2018-11-23T14:52:44.809Z,98402.92
2018-11-23T14:55:12.766Z,98404.29
2018-11-23T14:57:41.561Z,98400.58
2018-11-23T15:00:26.015Z,98404.84
2018-11-23T15:02:54.518Z,98402.67
2018-11-23T15:05:22.318Z,98404.56
2018-11-23T15:07:50.607Z,98408.36
2018-11-23T15:10:20.596Z,98409.17
2018-11-23T15:12:50.607Z,98412.14
2018-11-23T15:15:20.470Z,98405.55
2018-11-23T15:17:49.628Z,98408.21
2018-11-23T15:20:20.433Z,98410.06
2018-11-23T15:22:51.323Z,98409.81
2018-11-23T15:25:20.324Z,98403.39
2018-11-23T15:27:48.564Z,98406.10
2018-11-23T15:30:20.224Z,98408.22
2018-11-23T15:32:48.724Z,98407.70
2018-11-23T15:35:17.216Z,98406.89
2018-11-23T15:37:45.667Z,98405.28
2018-11-23T15:40:20.324Z,98395.64
2018-11-23T15:42:49.810Z,98404.19
2018-11-23T15:45:19.485Z,98407.16
2018-11-23T15:47:47.789Z,98401.28
2018-11-23T15:50:18.690Z,98406.63
2018-11-23T15:52:47.643Z,98400.45
2018-11-23T15:55:19.341Z,98399.36
2018-11-23T15:57:48.549Z,98406.59
2018-11-23T16:03:00.014Z,98402.81
2018-11-23T16:05:28.006Z,98397.77
2018-11-23T16:07:58.209Z,98387.82
2018-11-23T16:10:28.303Z,98403.30
2018-11-23T16:12:57.519Z,98402.47
2018-11-23T16:15:26.503Z,98398.48
2018-11-23T16:17:54.590Z,98399.77
2018-11-23T16:20:25.301Z,98398.16
2018-11-23T16:22:54.722Z,98396.32
2018-11-23T16:25:25.755Z,98386.64
2018-11-23T16:27:55.306Z,98382.12
2018-11-23T16:30:24.236Z,98377.06
2018-11-23T16:32:53.519Z,98392.27
2018-11-23T16:35:26.603Z,98382.19
2018-11-23T16:37:55.310Z,98385.44
2018-11-23T16:40:24.429Z,98385.69
2018-11-23T16:42:52.909Z,98380.09
2018-11-23T16:45:22.983Z,98374.55
2018-11-23T16:47:51.523Z,98364.88
2018-11-23T16:50:19.306Z,98362.80
2018-11-23T16:52:47.996Z,98361.14
2018-11-23T16:55:16.826Z,98359.08
2018-11-23T16:57:46.006Z,98354.27
2018-11-23T17:00:17.495Z,98353.73
2018-11-23T17:02:45.436Z,98352.14
2018-11-23T17:05:14.470Z,98351.34
2018-11-23T17:07:42.218Z,98352.41
2018-11-23T17:10:12.303Z,98352.70
2018-11-23T17:12:40.494Z,98345.21
2018-11-23T17:15:10.540Z,98341.22
2018-11-23T17:17:38.516Z,98346.84
2018-11-23T17:20:10.875Z,98342.05
2018-11-23T17:22:38.842Z,98343.91
2018-11-23T17:25:08.378Z,98339.89
2018-11-23T17:27:36.051Z,98335.33
2018-11-23T17:30:04.585Z,98333.43
2018-11-23T17:32:32.301Z,98325.39
2018-11-23T17:34:59.993Z,98320.50
2018-11-23T17:37:27.735Z,98307.20
2018-11-23T17:39:55.581Z,98318.30
2018-11-23T17:42:23.686Z,98303.92
2018-11-23T17:44:51.672Z,98300.75
2018-11-23T17:47:19.407Z,98297.50
2018-11-23T17:49:47.203Z,98293.30
2018-11-23T17:52:14.751Z,98281.05
2018-11-23T17:54:42.701Z,98267.23
2018-11-23T17:57:09.951Z,98270.95
2018-11-23T17:59:42.777Z,98279.50
2018-11-23T18:02:10.715Z,98283.42
2018-11-23T18:04:38.535Z,98267.17
2018-11-23T18:07:06.500Z,98266.40
2018-11-23T18:09:36.178Z,98258.66
2018-11-23T18:12:03.947Z,98260.25
2018-11-23T18:14:31.763Z,98255.72
2018-11-23T18:16:58.958Z,98240.53
2018-11-23T18:19:26.663Z,98237.30
2018-11-23T18:21:54.466Z,98231.49
2018-11-23T18:24:22.197Z,98223.17
2018-11-23T18:26:49.995Z,98224.92
2018-11-23T18:29:17.800Z,98216.22
2018-11-23T18:31:45.613Z,98227.90
2018-11-23T18:34:13.543Z,98214.77
2018-11-23T18:36:41.203Z,98201.72
2018-11-23T18:39:09.187Z,98209.95
2018-11-23T18:41:37.597Z,98206.19
2018-11-23T18:44:05.822Z,98209.87
2018-11-23T18:46:33.828Z,98212.55
2018-11-23T18:49:01.717Z,98218.88
2018-11-23T18:51:29.691Z,98211.67
2018-11-23T18:53:56.896Z,98197.86
2018-11-23T18:56:24.804Z,98197.93
2018-11-23T18:58:53.532Z,98192.84
2018-11-23T19:01:22.032Z,98187.18
2018-11-23T19:03:50.858Z,98183.48
2018-11-23T19:06:18.552Z,98168.66
2018-11-23T19:08:47.457Z,98179.83
2018-11-23T19:11:15.585Z,98179.09
2018-11-23T19:13:44.063Z,98185.27
2018-11-23T19:16:12.434Z,98187.97
2018-11-23T19:18:40.631Z,98183.34
2018-11-23T19:21:08.903Z,98186.26
2018-11-23T19:23:37.816Z,98178.11
2018-11-23T19:26:06.529Z,98176.28
2018-11-23T19:28:35.039Z,98149.58
2018-11-23T19:31:03.545Z,98151.37
2018-11-23T19:33:31.853Z,98139.35
2018-11-23T19:36:02.215Z,98138.29
2018-11-23T19:38:30.711Z,98131.02
2018-11-23T19:40:58.886Z,98134.98
2018-11-23T19:43:27.292Z,98144.05
2018-11-23T19:45:56.198Z,98132.34
2018-11-23T19:48:24.906Z,98140.13
2018-11-23T19:50:53.197Z,98142.78
2018-11-23T19:53:21.539Z,98144.90
2018-11-23T19:55:49.976Z,98147.08
2018-11-23T19:58:18.624Z,98147.25
2018-11-23T20:00:47.226Z,98142.27
2018-11-23T20:03:15.339Z,98144.30
2018-11-23T20:05:44.183Z,98143.45
2018-11-23T20:08:12.583Z,98148.86
2018-11-23T20:10:40.877Z,98151.45
2018-11-23T20:13:09.459Z,98152.75
2018-11-23T20:15:37.919Z,98151.45
2018-11-23T20:18:07.376Z,98154.34
2018-11-23T20:20:35.538Z,98156.23
2018-11-23T20:23:04.049Z,98157.25
2018-11-23T20:25:32.325Z,98153.52
2018-11-23T20:28:00.576Z,98151.86
2018-11-23T20:30:29.230Z,98156.80
2018-11-23T20:32:57.540Z,98150.89
2018-11-23T20:38:06.815Z,98155.67
2018-11-23T20:40:34.018Z,98150.56
2018-11-23T20:43:01.815Z,98150.84
2018-11-23T20:45:29.696Z,98158.64
2018-11-23T20:47:57.574Z,98150.34
2018-11-23T20:50:25.314Z,98156.22
2018-11-23T20:52:53.018Z,98143.95
2018-11-23T20:55:21.728Z,98140.69
2018-11-23T20:57:49.659Z,98137.52
2018-11-23T21:00:19.315Z,98140.76
2018-11-23T21:02:48.591Z,98141.84
2018-11-23T21:05:17.786Z,98130.32
2018-11-23T21:07:45.648Z,98130.70
2018-11-23T21:10:20.297Z,98127.72
2018-11-23T21:12:43.536Z,98124.73
2018-11-23T21:15:31.580Z,98123.84
2018-11-23T21:18:02.657Z,98115.27
2018-11-23T21:20:30.554Z,98109.36
2018-11-23T21:22:58.488Z,98105.16
2018-11-23T21:25:26.182Z,98097.95
2018-11-23T21:27:53.435Z,98095.56
2018-11-23T21:30:22.603Z,98095.36
2018-11-23T21:32:51.309Z,98098.03
2018-11-23T21:35:19.156Z,98097.78
2018-11-23T21:37:46.763Z,98103.61
2018-11-23T21:40:15.418Z,98054.84
2018-11-23T21:42:43.238Z,98100.56
2018-11-23T21:45:11.595Z,98097.02
2018-11-23T21:47:39.597Z,98078.72
2018-11-23T21:50:11.583Z,98093.69
2018-11-23T21:52:39.303Z,98089.36
2018-11-23T21:55:09.502Z,98087.14
2018-11-23T21:57:37.459Z,98065.33
2018-11-23T22:00:07.593Z,98073.51
2018-11-23T22:02:35.308Z,98073.30
2018-11-23T22:05:02.543Z,98064.35
2018-11-23T22:07:30.302Z,98064.00
2018-11-23T22:09:57.997Z,98058.09
2018-11-23T22:12:25.751Z,98051.73
2018-11-23T22:14:53.663Z,98037.30
2018-11-23T22:17:21.472Z,98031.19
2018-11-23T22:19:49.307Z,98017.64
2018-11-23T22:22:17.195Z,98020.35
2018-11-23T22:24:45.187Z,98015.74
2018-11-23T22:27:12.948Z,98014.81
2018-11-23T22:29:40.650Z,98011.09
2018-11-23T22:32:08.504Z,98015.34
2018-11-23T22:34:36.307Z,98007.05
2018-11-23T22:37:04.195Z,98005.06
2018-11-23T22:39:31.302Z,98003.25
2018-11-23T22:41:59.034Z,98011.01
2018-11-23T22:44:26.438Z,98005.15
2018-11-23T22:46:54.208Z,98001.09
2018-11-23T22:49:22.194Z,97999.03
2018-11-23T22:51:50.011Z,97998.52
2018-11-23T22:54:18.003Z,97990.71
2018-11-23T22:56:45.959Z,97997.10
2018-11-23T22:59:13.185Z,97990.14
2018-11-23T23:01:41.018Z,97983.80
2018-11-23T23:04:08.752Z,97989.13
2018-11-23T23:06:36.614Z,97988.64
2018-11-23T23:09:08.066Z,97988.89
2018-11-23T23:11:36.586Z,97985.69
2018-11-23T23:14:04.639Z,97979.30
2018-11-23T23:16:32.307Z,97974.49
2018-11-23T23:19:00.012Z,97969.95
2018-11-23T23:21:27.747Z,97968.02
2018-11-23T23:23:55.567Z,97909.20
2018-11-23T23:26:23.307Z,97956.00
2018-11-23T23:28:51.030Z,97946.09
2018-11-23T23:31:18.302Z,97941.89
2018-11-23T23:33:46.009Z,97940.21
2018-11-23T23:36:13.763Z,97940.19
2018-11-23T23:38:41.579Z,97955.42
2018-11-23T23:41:09.456Z,97954.85
2018-11-23T23:43:37.558Z,97946.86
2018-11-23T23:46:05.226Z,97944.19
2018-11-23T23:48:33.041Z,97944.75
2018-11-23T23:51:00.909Z,97943.19
2018-11-23T23:53:28.639Z,97948.31
2018-11-23T23:55:56.767Z,97958.34
2018-11-23T23:58:24.190Z,97954.56
